createdAt,value
2018-09-02T00:01:24.707Z,5.70
2018-09-02T00:03:52.993Z,5.10
2018-09-02T00:06:21.366Z,5.80
2018-09-02T00:08:49.796Z,5.20
2018-09-02T00:11:18.119Z,5.00
2018-09-02T00:13:46.414Z,4.80
2018-09-02T00:16:14.785Z,5.10
2018-09-02T00:18:43.368Z,5.20
2018-09-02T00:21:11.760Z,5.13
2018-09-02T00:23:40.127Z,5.40
2018-09-02T00:26:08.436Z,5.60
2018-09-02T00:28:36.884Z,5.57
2018-09-02T00:31:05.660Z,5.30
2018-09-02T00:33:34.034Z,5.50
2018-09-02T00:36:02.332Z,5.30
2018-09-02T00:38:30.697Z,4.87
2018-09-02T00:40:59.060Z,5.53
2018-09-02T00:43:27.320Z,5.70
2018-09-02T00:45:55.599Z,6.27
2018-09-02T00:48:23.921Z,6.03
2018-09-02T00:50:52.198Z,6.13
2018-09-02T00:53:20.588Z,7.23
2018-09-02T00:55:48.869Z,6.43
2018-09-02T00:58:17.249Z,6.70
2018-09-02T01:00:48.530Z,7.20
2018-09-02T01:03:16.911Z,7.60
2018-09-02T01:05:45.337Z,6.23
2018-09-02T01:08:13.726Z,7.07
2018-09-02T01:10:42.126Z,6.50
2018-09-02T01:13:10.471Z,7.03
2018-09-02T01:15:38.855Z,6.50
2018-09-02T01:18:07.186Z,6.90
2018-09-02T01:20:35.786Z,6.77
2018-09-02T01:23:04.158Z,7.53
2018-09-02T01:25:32.351Z,7.33
2018-09-02T01:28:00.630Z,7.40
2018-09-02T01:30:29.012Z,6.77
2018-09-02T01:32:57.288Z,6.63
2018-09-02T01:35:30.919Z,6.73
2018-09-02T01:37:59.442Z,6.70
2018-09-02T01:40:27.875Z,6.63
2018-09-02T01:42:56.222Z,7.20
2018-09-02T01:45:24.483Z,6.47
2018-09-02T01:47:52.894Z,6.43
2018-09-02T01:50:21.230Z,7.53
2018-09-02T01:52:49.744Z,7.10
2018-09-02T01:55:18.166Z,6.47
2018-09-02T01:57:46.604Z,7.67
2018-09-02T02:00:16.556Z,6.87
2018-09-02T02:02:45.301Z,6.87
2018-09-02T02:05:13.607Z,7.20
2018-09-02T02:07:41.971Z,6.07
2018-09-02T02:10:10.325Z,6.53
2018-09-02T02:12:38.875Z,7.23
2018-09-02T02:15:07.251Z,7.37
2018-09-02T02:17:35.685Z,7.33
2018-09-02T02:20:03.963Z,8.13
2018-09-02T02:22:32.508Z,7.13
2018-09-02T02:25:00.869Z,6.90
2018-09-02T02:27:29.239Z,7.07
2018-09-02T02:29:57.826Z,6.13
2018-09-02T02:32:26.167Z,6.60
2018-09-02T02:34:54.450Z,6.67
2018-09-02T02:37:22.710Z,6.50
2018-09-02T02:39:51.102Z,6.97
2018-09-02T02:42:19.425Z,7.40
2018-09-02T02:44:47.706Z,7.37
2018-09-02T02:47:16.131Z,7.10
2018-09-02T02:49:44.416Z,8.43
2018-09-02T02:52:13.085Z,8.87
2018-09-02T02:54:41.476Z,8.03
2018-09-02T02:57:09.869Z,8.83
2018-09-02T02:59:38.126Z,8.30
2018-09-02T03:02:06.615Z,8.47
2018-09-02T03:04:35.035Z,8.87
2018-09-02T03:07:03.343Z,8.27
2018-09-02T03:09:31.594Z,7.50
2018-09-02T03:11:59.939Z,7.73
2018-09-02T03:14:28.206Z,7.63
2018-09-02T03:16:56.497Z,7.90
2018-09-02T03:19:24.780Z,8.87
2018-09-02T03:21:53.071Z,8.57
2018-09-02T03:24:21.386Z,8.23
2018-09-02T03:26:49.700Z,7.70
2018-09-02T03:29:17.961Z,8.23
2018-09-02T03:31:46.424Z,7.23
2018-09-02T03:34:14.730Z,8.10
2018-09-02T03:36:43.039Z,8.20
2018-09-02T03:39:11.335Z,7.53
2018-09-02T03:41:39.719Z,7.70
2018-09-02T03:44:07.979Z,7.97
2018-09-02T03:46:36.305Z,8.17
2018-09-02T03:49:04.658Z,8.60
2018-09-02T03:51:32.934Z,9.07
2018-09-02T03:54:01.214Z,8.90
2018-09-02T03:56:29.600Z,10.07
2018-09-02T03:58:57.854Z,8.67
2018-09-02T04:01:26.474Z,8.03
2018-09-02T04:03:54.749Z,8.53
2018-09-02T04:06:23.130Z,7.40
2018-09-02T04:08:51.414Z,7.60
2018-09-02T04:11:19.698Z,9.00
2018-09-02T04:13:47.982Z,8.03
2018-09-02T04:16:16.262Z,8.83
2018-09-02T04:18:44.547Z,7.30
2018-09-02T04:21:12.806Z,8.57
2018-09-02T04:23:41.090Z,8.30
2018-09-02T04:26:09.375Z,9.10
2018-09-02T04:28:37.642Z,8.60
2018-09-02T04:31:05.950Z,8.10
2018-09-02T04:33:34.194Z,8.03
2018-09-02T04:36:02.495Z,7.90
2018-09-02T04:38:30.827Z,7.90
2018-09-02T04:40:59.128Z,8.03
2018-09-02T04:43:27.476Z,7.50
2018-09-02T04:45:55.859Z,7.50
2018-09-02T04:48:24.289Z,7.53
2018-09-02T04:50:52.732Z,7.57
2018-09-02T04:53:21.031Z,8.23
2018-09-02T04:55:49.374Z,7.57
2018-09-02T04:58:17.743Z,8.30
2018-09-02T05:00:46.015Z,8.10
2018-09-02T05:03:14.444Z,8.20
2018-09-02T05:05:42.775Z,7.53
2018-09-02T05:08:11.170Z,8.13
2018-09-02T05:10:39.516Z,7.87
2018-09-02T05:13:07.814Z,7.60
2018-09-02T05:15:36.085Z,7.80
2018-09-02T05:18:04.386Z,7.90
2018-09-02T05:20:32.629Z,8.07
2018-09-02T05:23:00.935Z,7.50
2018-09-02T05:25:29.186Z,6.73
2018-09-02T05:27:57.608Z,7.10
2018-09-02T05:30:25.982Z,7.53
2018-09-02T05:32:54.407Z,8.30
2018-09-02T05:35:22.917Z,6.70
2018-09-02T05:37:51.294Z,6.23
2018-09-02T05:40:19.738Z,6.90
2018-09-02T05:42:48.152Z,6.20
2018-09-02T05:45:16.622Z,7.30
2018-09-02T05:47:45.049Z,7.00
2018-09-02T05:50:13.546Z,6.43
2018-09-02T05:52:41.942Z,6.80
2018-09-02T05:55:10.376Z,7.30
2018-09-02T05:57:38.839Z,7.77
2018-09-02T06:00:07.179Z,6.53
2018-09-02T06:02:35.614Z,6.63
2018-09-02T06:05:03.974Z,7.73
2018-09-02T06:07:32.338Z,6.50
2018-09-02T06:10:00.649Z,5.70
2018-09-02T06:12:28.939Z,7.10
2018-09-02T06:14:57.201Z,6.87
2018-09-02T06:17:25.541Z,5.70
2018-09-02T06:19:53.739Z,5.30
2018-09-02T06:22:22.099Z,5.13
2018-09-02T06:24:50.507Z,4.30
2018-09-02T06:27:18.895Z,4.57
2018-09-02T06:29:47.359Z,4.00
2018-09-02T06:32:15.819Z,4.97
2018-09-02T06:34:44.210Z,4.27
2018-09-02T06:37:12.774Z,4.10
2018-09-02T06:39:41.140Z,4.07
2018-09-02T06:42:09.504Z,4.97
2018-09-02T06:44:37.918Z,5.17
2018-09-02T06:47:06.323Z,4.63
2018-09-02T06:49:34.685Z,4.57
2018-09-02T06:52:03.049Z,4.80
2018-09-02T06:54:31.562Z,5.27
2018-09-02T06:56:59.919Z,5.67
2018-09-02T06:59:28.396Z,4.97
2018-09-02T07:01:56.842Z,5.50
2018-09-02T07:04:25.177Z,4.73
2018-09-02T07:06:53.582Z,4.93
2018-09-02T07:09:21.914Z,5.07
2018-09-02T07:11:50.331Z,4.87
2018-09-02T07:14:18.801Z,5.10
2018-09-02T07:16:47.208Z,5.00
2018-09-02T07:19:15.534Z,5.20
2018-09-02T07:21:44.323Z,5.30
2018-09-02T07:24:12.990Z,5.40
2018-09-02T07:26:41.657Z,5.13
2018-09-02T07:29:09.923Z,5.03
2018-09-02T07:31:38.369Z,4.73
2018-09-02T07:34:06.628Z,5.40
2018-09-02T07:36:34.889Z,5.50
2018-09-02T07:39:03.300Z,4.20
2018-09-02T07:41:31.881Z,3.77
2018-09-02T07:44:00.313Z,4.20
2018-09-02T07:46:32.517Z,4.03
2018-09-02T07:49:00.962Z,4.03
2018-09-02T07:51:29.712Z,3.40
2018-09-02T07:53:58.065Z,3.83
2018-09-02T07:56:26.657Z,3.77
2018-09-02T07:58:55.153Z,3.80
2018-09-02T08:01:23.763Z,3.50
2018-09-02T08:03:52.227Z,3.97
2018-09-02T08:06:20.829Z,3.33
2018-09-02T08:08:49.294Z,3.57
2018-09-02T08:11:17.842Z,3.60
2018-09-02T08:13:46.236Z,3.10
2018-09-02T08:16:14.778Z,3.33
2018-09-02T08:18:43.291Z,3.77
2018-09-02T08:21:11.819Z,3.10
2018-09-02T08:23:40.269Z,3.50
2018-09-02T08:26:09.851Z,3.27
2018-09-02T08:28:38.295Z,3.43
2018-09-02T08:31:06.796Z,3.40
2018-09-02T08:33:35.247Z,3.43
2018-09-02T08:36:03.846Z,3.17
2018-09-02T08:38:32.292Z,3.20
2018-09-02T08:41:00.754Z,2.50
2018-09-02T08:43:29.254Z,3.20
2018-09-02T08:45:57.676Z,3.03
2018-09-02T08:48:26.165Z,2.57
2018-09-02T08:50:54.829Z,2.50
2018-09-02T08:53:24.380Z,2.83
2018-09-02T08:55:53.471Z,2.70
2018-09-02T08:58:21.988Z,2.57
2018-09-02T09:00:50.488Z,3.40
2018-09-02T09:03:18.954Z,2.90
2018-09-02T09:05:47.436Z,2.60
2018-09-02T09:08:16.156Z,2.40
2018-09-02T09:10:44.413Z,2.30
2018-09-02T09:13:12.879Z,2.37
2018-09-02T09:15:41.450Z,2.40
2018-09-02T09:18:09.954Z,2.17
2018-09-02T09:20:38.335Z,2.60
2018-09-02T09:23:07.867Z,2.30
2018-09-02T09:25:38.310Z,2.23
2018-09-02T09:28:06.786Z,3.17
2018-09-02T09:30:35.249Z,2.40
2018-09-02T09:33:03.647Z,2.50
2018-09-02T09:35:34.125Z,2.37
2018-09-02T09:38:02.849Z,2.50
2018-09-02T09:40:31.308Z,2.70
2018-09-02T09:42:59.712Z,2.67
2018-09-02T09:45:28.243Z,2.50
2018-09-02T09:47:56.639Z,2.43
2018-09-02T09:50:25.057Z,2.60
2018-09-02T09:52:53.484Z,2.63
2018-09-02T09:55:21.894Z,2.60
2018-09-02T09:57:50.404Z,3.20
2018-09-02T10:00:24.239Z,2.40
2018-09-02T10:02:52.723Z,3.03
2018-09-02T10:05:21.170Z,2.60
2018-09-02T10:07:49.790Z,3.00
2018-09-02T10:10:18.277Z,3.27
2018-09-02T10:12:47.811Z,2.63
2018-09-02T10:15:16.632Z,2.20
2018-09-02T10:17:45.096Z,2.70
2018-09-02T10:20:13.564Z,2.40
2018-09-02T10:22:41.992Z,3.10
2018-09-02T10:25:11.443Z,2.57
2018-09-02T10:27:39.856Z,2.43
2018-09-02T10:30:08.332Z,2.97
2018-09-02T10:32:36.771Z,2.53
2018-09-02T10:35:05.555Z,2.50
2018-09-02T10:37:34.032Z,2.63
2018-09-02T10:40:02.557Z,2.83
2018-09-02T10:42:31.162Z,2.23
2018-09-02T10:44:59.713Z,2.10
2018-09-02T10:47:28.202Z,2.70
2018-09-02T10:49:56.671Z,2.53
2018-09-02T10:52:26.303Z,2.27
2018-09-02T10:54:56.277Z,2.07
2018-09-02T10:57:24.742Z,2.23
2018-09-02T10:59:53.340Z,2.40
2018-09-02T11:02:21.972Z,2.20
2018-09-02T11:04:50.477Z,2.33
2018-09-02T11:07:19.207Z,1.93
2018-09-02T11:09:47.683Z,2.53
2018-09-02T11:12:16.178Z,2.30
2018-09-02T11:14:44.628Z,2.20
2018-09-02T11:17:13.097Z,2.60
2018-09-02T11:19:41.467Z,1.90
2018-09-02T11:22:10.112Z,2.50
2018-09-02T11:24:38.633Z,2.20
2018-09-02T11:27:07.306Z,2.10
2018-09-02T11:29:35.853Z,2.30
2018-09-02T11:32:04.314Z,2.60
2018-09-02T11:34:32.859Z,2.20
2018-09-02T11:37:01.425Z,2.33
2018-09-02T11:39:29.929Z,2.43
2018-09-02T11:41:58.366Z,2.47
2018-09-02T11:44:26.934Z,2.60
2018-09-02T11:46:55.478Z,2.57
2018-09-02T11:49:24.128Z,2.60
2018-09-02T11:51:52.623Z,2.37
2018-09-02T11:54:21.060Z,2.63
2018-09-02T11:56:49.951Z,2.60
2018-09-02T11:59:18.442Z,2.47
2018-09-02T12:01:46.838Z,2.80
2018-09-02T12:04:15.395Z,2.63
2018-09-02T12:06:44.867Z,2.50
2018-09-02T12:09:13.442Z,2.60
2018-09-02T12:11:41.920Z,2.03
2018-09-02T12:14:10.558Z,2.70
2018-09-02T12:16:39.179Z,2.70
2018-09-02T12:19:07.615Z,2.80
2018-09-02T12:21:36.115Z,2.70
2018-09-02T12:24:04.592Z,2.47
2018-09-02T12:26:33.218Z,2.93
2018-09-02T12:29:01.656Z,2.30
2018-09-02T12:31:30.142Z,2.10
2018-09-02T12:33:58.698Z,2.60
2018-09-02T12:36:33.920Z,3.07
2018-09-02T12:39:02.583Z,2.30
2018-09-02T12:41:31.051Z,2.97
2018-09-02T12:43:59.608Z,2.10
2018-09-02T12:46:28.082Z,2.40
2018-09-02T12:48:56.611Z,2.50
2018-09-02T12:51:25.808Z,2.53
2018-09-02T12:53:55.399Z,2.30
2018-09-02T12:56:24.036Z,2.60
2018-09-02T12:58:52.602Z,2.47
2018-09-02T13:01:21.169Z,2.73
2018-09-02T13:03:49.589Z,2.47
2018-09-02T13:06:18.036Z,2.53
2018-09-02T13:08:46.484Z,2.77
2018-09-02T13:11:14.987Z,2.40
2018-09-02T13:13:43.504Z,2.27
2018-09-02T13:16:12.009Z,2.63
2018-09-02T13:18:40.625Z,2.40
2018-09-02T13:21:09.058Z,2.87
2018-09-02T13:23:37.519Z,2.70
2018-09-02T13:26:06.436Z,2.73
2018-09-02T13:28:35.325Z,2.40
2018-09-02T13:31:04.060Z,2.20
2018-09-02T13:33:33.538Z,2.67
2018-09-02T13:36:10.052Z,2.67
2018-09-02T13:38:39.437Z,2.67
2018-09-02T13:41:08.392Z,2.23
2018-09-02T13:43:36.890Z,2.20
2018-09-02T13:46:05.417Z,2.47
2018-09-02T13:48:33.989Z,2.10
2018-09-02T13:51:02.517Z,2.80
2018-09-02T13:56:10.380Z,2.40
2018-09-02T13:58:38.875Z,3.03
2018-09-02T14:01:07.451Z,2.53
2018-09-02T14:03:35.888Z,2.67
2018-09-02T14:06:11.813Z,2.50
2018-09-02T14:08:40.219Z,2.67
2018-09-02T14:11:08.638Z,3.03
2018-09-02T14:13:37.197Z,2.90
2018-09-02T14:16:05.938Z,2.80
2018-09-02T14:18:34.299Z,2.87
2018-09-02T14:21:02.755Z,3.27
2018-09-02T14:23:31.210Z,2.43
2018-09-02T14:25:59.595Z,3.00
2018-09-02T14:28:28.051Z,3.10
2018-09-02T14:30:59.395Z,2.70
2018-09-02T14:33:27.854Z,2.87
2018-09-02T14:35:57.502Z,2.80
2018-09-02T14:38:25.995Z,2.80
2018-09-02T14:40:54.443Z,3.10
2018-09-02T14:43:22.891Z,2.57
2018-09-02T14:45:51.242Z,2.77
2018-09-02T14:48:19.628Z,3.00
2018-09-02T14:50:47.995Z,2.80
2018-09-02T14:53:16.392Z,2.60
2018-09-02T14:55:45.602Z,3.40
2018-09-02T14:58:14.033Z,3.13
2018-09-02T15:00:42.432Z,2.97
2018-09-02T15:03:10.835Z,3.30
2018-09-02T15:05:39.229Z,3.20
2018-09-02T15:08:07.660Z,3.00
2018-09-02T15:10:36.058Z,2.80
2018-09-02T15:13:04.487Z,2.97
2018-09-02T15:15:32.829Z,3.43
2018-09-02T15:18:01.195Z,3.27
2018-09-02T15:20:29.588Z,3.13
2018-09-02T15:22:58.062Z,2.87
2018-09-02T15:25:26.456Z,3.10
2018-09-02T15:27:54.857Z,3.20
2018-09-02T15:30:23.825Z,3.07
2018-09-02T15:32:52.315Z,3.60
2018-09-02T15:35:20.956Z,2.97
2018-09-02T15:37:49.349Z,3.20
2018-09-02T15:40:17.760Z,3.13
2018-09-02T15:42:46.178Z,3.17
2018-09-02T15:45:14.648Z,2.90
2018-09-02T15:47:43.115Z,3.00
2018-09-02T15:50:11.502Z,3.20
2018-09-02T15:52:40.015Z,2.87
2018-09-02T15:55:08.507Z,3.13
2018-09-02T15:57:36.954Z,3.33
2018-09-02T16:00:06.919Z,2.77
2018-09-02T16:02:35.311Z,3.13
2018-09-02T16:05:03.719Z,3.30
2018-09-02T16:07:32.808Z,3.40
2018-09-02T16:10:02.484Z,2.60
2018-09-02T16:12:31.536Z,2.97
2018-09-02T16:15:00.259Z,3.50
2018-09-02T16:17:29.007Z,3.33
2018-09-02T16:19:57.462Z,3.37
2018-09-02T16:22:26.470Z,3.80
2018-09-02T16:24:55.121Z,3.50
2018-09-02T16:27:23.604Z,3.63
2018-09-02T16:29:52.210Z,3.43
2018-09-02T16:32:20.629Z,3.30
2018-09-02T16:34:48.995Z,3.80
2018-09-02T16:37:17.523Z,3.80
2018-09-02T16:39:46.022Z,3.80
2018-09-02T16:42:14.466Z,3.17
2018-09-02T16:44:42.847Z,3.70
2018-09-02T16:47:11.356Z,3.70
2018-09-02T16:49:39.756Z,6.70
2018-09-02T16:52:08.222Z,3.30
2018-09-02T16:54:36.628Z,3.30
2018-09-02T16:57:05.588Z,3.37
2018-09-02T16:59:34.134Z,3.07
2018-09-02T17:02:02.593Z,3.50
2018-09-02T17:04:33.086Z,3.37
2018-09-02T17:07:01.603Z,3.57
2018-09-02T17:09:30.071Z,3.20
2018-09-02T17:11:58.585Z,3.13
2018-09-02T17:14:26.951Z,3.70
2018-09-02T17:16:55.306Z,3.97
2018-09-02T17:19:26.778Z,3.80
2018-09-02T17:21:55.374Z,3.90
2018-09-02T17:24:23.833Z,4.23
2018-09-02T17:26:52.236Z,4.27
2018-09-02T17:29:20.839Z,3.20
2018-09-02T17:31:49.186Z,3.47
2018-09-02T17:34:17.771Z,3.60
2018-09-02T17:36:46.148Z,3.60
2018-09-02T17:39:14.582Z,3.70
2018-09-02T17:41:43.274Z,4.10
2018-09-02T17:44:11.646Z,4.03
2018-09-02T17:46:40.039Z,3.50
2018-09-02T17:49:12.023Z,4.10
2018-09-02T17:51:41.758Z,3.73
2018-09-02T17:54:10.277Z,3.80
2018-09-02T17:56:38.819Z,3.57
2018-09-02T17:59:07.468Z,5.00
2018-09-02T18:01:36.119Z,4.57
2018-09-02T18:06:42.977Z,6.10
2018-09-02T18:09:11.959Z,4.83
2018-09-02T18:11:41.835Z,5.47
2018-09-02T18:16:50.930Z,5.40
2018-09-02T18:19:21.132Z,5.23
2018-09-02T18:21:49.629Z,5.60
2018-09-02T18:24:18.353Z,5.43
2018-09-02T18:26:47.025Z,5.90
2018-09-02T18:29:16.414Z,6.30
2018-09-02T18:31:44.884Z,6.27
2018-09-02T18:34:22.874Z,7.17
2018-09-02T18:36:52.158Z,7.13
2018-09-02T18:39:20.744Z,6.43
2018-09-02T18:41:49.024Z,6.93
2018-09-02T18:44:17.431Z,6.80
2018-09-02T18:46:45.868Z,8.00
2018-09-02T18:49:14.360Z,7.50
2018-09-02T18:51:42.919Z,8.87
2018-09-02T18:54:11.444Z,7.60
2018-09-02T18:56:40.290Z,7.07
2018-09-02T18:59:09.866Z,7.90
2018-09-02T19:01:38.426Z,7.77
2018-09-02T19:04:06.887Z,8.47
2018-09-02T19:06:35.321Z,7.83
2018-09-02T19:09:04.208Z,8.30
2018-09-02T19:11:32.827Z,8.40
2018-09-02T19:14:01.321Z,9.53
2018-09-02T19:16:30.060Z,8.60
2018-09-02T19:18:58.493Z,8.40
2018-09-02T19:21:26.936Z,8.23
2018-09-02T19:23:55.357Z,9.10
2018-09-02T19:26:23.804Z,9.40
2018-09-02T19:28:52.373Z,8.63
2018-09-02T19:31:20.866Z,9.20
2018-09-02T19:33:49.429Z,9.00
2018-09-02T19:36:17.975Z,8.70
2018-09-02T19:38:47.562Z,9.80
2018-09-02T19:41:16.095Z,9.03
2018-09-02T19:43:44.496Z,8.57
2018-09-02T19:46:12.827Z,9.33
2018-09-02T19:48:41.335Z,9.43
2018-09-02T19:51:09.790Z,8.90
2018-09-02T19:53:38.530Z,9.80
2018-09-02T19:56:07.079Z,10.30
2018-09-02T19:58:35.488Z,10.10
2018-09-02T20:01:03.869Z,11.00
2018-09-02T20:03:32.423Z,11.23
2018-09-02T20:06:00.818Z,11.77
2018-09-02T20:08:29.255Z,12.37
2018-09-02T20:10:57.694Z,11.70
2018-09-02T20:13:26.152Z,11.23
2018-09-02T20:15:54.568Z,11.03
2018-09-02T20:18:23.051Z,11.80
2018-09-02T20:20:51.504Z,13.37
2018-09-02T20:23:19.963Z,13.33
2018-09-02T20:25:48.495Z,13.50
2018-09-02T20:28:17.984Z,14.00
2018-09-02T20:30:47.971Z,14.47
2018-09-02T20:33:16.427Z,13.60
2018-09-02T20:35:44.921Z,12.70
2018-09-02T20:38:13.736Z,13.93
2018-09-02T20:40:42.284Z,12.33
2018-09-02T20:43:10.816Z,13.40
2018-09-02T20:45:39.874Z,13.43
2018-09-02T20:48:08.268Z,13.03
2018-09-02T20:50:36.692Z,13.33
2018-09-02T20:53:05.366Z,12.70
2018-09-02T20:55:33.803Z,14.63
2018-09-02T20:58:02.331Z,13.97
2018-09-02T21:00:30.795Z,14.00
2018-09-02T21:02:59.265Z,13.80
2018-09-02T21:05:27.839Z,13.53
2018-09-02T21:07:56.602Z,13.87
2018-09-02T21:10:25.060Z,15.03
2018-09-02T21:12:53.519Z,13.53
2018-09-02T21:15:22.940Z,12.67
2018-09-02T21:17:51.355Z,14.13
2018-09-02T21:20:19.768Z,14.50
2018-09-02T21:22:48.179Z,14.07
2018-09-02T21:25:16.699Z,14.30
2018-09-02T21:27:45.162Z,13.67
2018-09-02T21:30:13.659Z,14.13
2018-09-02T21:32:42.082Z,13.77
2018-09-02T21:35:10.448Z,14.00
2018-09-02T21:37:38.862Z,13.90
2018-09-02T21:40:07.259Z,13.97
2018-09-02T21:42:35.676Z,13.87
2018-09-02T21:45:04.029Z,13.73
2018-09-02T21:47:32.465Z,14.00
2018-09-02T21:50:00.862Z,13.60
2018-09-02T21:52:29.267Z,14.80
2018-09-02T21:54:57.736Z,12.77
2018-09-02T21:57:26.086Z,13.50
2018-09-02T21:59:54.547Z,14.03
2018-09-02T22:02:22.904Z,13.43
2018-09-02T22:04:51.266Z,12.57
2018-09-02T22:07:19.706Z,14.03
2018-09-02T22:09:48.089Z,13.63
2018-09-02T22:12:16.473Z,13.70
2018-09-02T22:14:44.870Z,12.93
2018-09-02T22:17:13.146Z,14.40
2018-09-02T22:19:41.688Z,13.40
2018-09-02T22:22:10.020Z,12.93
2018-09-02T22:24:38.312Z,13.30
2018-09-02T22:27:07.579Z,14.07
2018-09-02T22:29:35.910Z,13.03
2018-09-02T22:32:04.223Z,11.80
2018-09-02T22:34:32.646Z,12.43
2018-09-02T22:37:00.959Z,12.70
2018-09-02T22:39:29.393Z,14.53
2018-09-02T22:41:57.817Z,13.77
2018-09-02T22:44:26.146Z,14.30
2018-09-02T22:46:54.494Z,14.23
2018-09-02T22:49:22.878Z,15.00
2018-09-02T22:51:51.230Z,15.57
2018-09-02T22:54:19.635Z,15.10
2018-09-02T22:56:47.995Z,14.03
2018-09-02T22:59:16.357Z,13.80
2018-09-02T23:01:44.674Z,13.07
2018-09-02T23:04:13.046Z,13.97
2018-09-02T23:06:41.395Z,12.40
2018-09-02T23:09:09.869Z,12.60
2018-09-02T23:11:38.306Z,12.60
2018-09-02T23:14:06.815Z,12.17
2018-09-02T23:16:35.234Z,11.60
2018-09-02T23:19:03.608Z,11.83
2018-09-02T23:21:31.986Z,10.97
2018-09-02T23:24:00.359Z,11.57
2018-09-02T23:26:28.828Z,11.70
2018-09-02T23:28:57.203Z,10.93
2018-09-02T23:31:25.548Z,11.67
2018-09-02T23:33:53.955Z,12.20
2018-09-02T23:36:22.394Z,12.07
2018-09-02T23:38:50.811Z,12.83
2018-09-02T23:41:19.185Z,11.80
2018-09-02T23:43:47.546Z,11.50
2018-09-02T23:46:15.920Z,10.90
2018-09-02T23:48:44.258Z,12.53
2018-09-02T23:51:12.657Z,11.93
2018-09-02T23:53:40.996Z,12.03
2018-09-02T23:56:09.322Z,11.40
2018-09-02T23:58:37.625Z,11.60
